Time,TemperatureF,DewpointF,PressureIn,WindDirection,WindDirectionDegrees,WindSpeedMPH,WindSpeedGustMPH,Humidity,HourlyPrecipIn,Conditions,Clouds,dailyrainin,SolarRadiationWatts/m^2,SoftwareType,DateUTC
2013-02-20 00:06:00,16.4,10.0,30.13,WNW,296,9.0,-999.0,76,-99.99,,,0.00,0,weatherlink.com 1.10,2013-02-20 05:06:00,
2013-02-20 00:21:00,16.3,10.0,30.13,WNW,295,8.0,-999.0,76,-99.99,,,0.00,0,weatherlink.com 1.10,2013-02-20 05:21:00,
2013-02-20 00:36:00,16.3,10.0,30.14,WNW,283,8.0,-999.0,76,-99.99,,,0.00,0,weatherlink.com 1.10,2013-02-20 05:36:00,
2013-02-20 00:51:00,16.1,10.0,30.14,WNW,297,6.0,-999.0,76,-99.99,,,0.00,0,weatherlink.com 1.10,2013-02-20 05:51:00,
2013-02-20 01:06:00,16.0,10.0,30.14,West,270,8.0,-999.0,77,-99.99,,,0.00,0,weatherlink.com 1.10,2013-02-20 06:06:00,
2013-02-20 01:21:00,16.1,10.0,30.14,WNW,294,5.0,-999.0,78,-99.99,,,0.00,0,weatherlink.com 1.10,2013-02-20 06:21:00,
2013-02-20 01:36:00,16.1,10.0,30.15,West,260,10.0,-999.0,77,-99.99,,,0.00,0,weatherlink.com 1.10,2013-02-20 06:36:00,
2013-02-20 01:51:00,15.9,10.0,30.16,West,264,7.0,-999.0,78,-99.99,,,0.00,0,weatherlink.com 1.10,2013-02-20 06:51:00,
2013-02-20 02:06:00,15.8,10.0,30.16,West,270,11.0,-999.0,79,-99.99,,,0.00,0,weatherlink.com 1.10,2013-02-20 07:06:00,
2013-02-20 02:21:00,15.6,9.0,30.17,West,274,12.0,-999.0,75,-99.99,,,0.00,0,weatherlink.com 1.10,2013-02-20 07:21:00,
2013-02-20 02:36:00,15.4,9.0,30.18,West,264,5.0,-999.0,74,-99.99,,,0.00,0,weatherlink.com 1.10,2013-02-20 07:36:00,
2013-02-20 02:52:00,15.2,8.0,30.18,WSW,251,9.0,-999.0,73,-99.99,,,0.00,0,weatherlink.com 1.10,2013-02-20 07:52:00,
2013-02-20 03:07:00,15.1,8.0,30.18,West,274,9.0,-999.0,74,-99.99,,,0.00,0,weatherlink.com 1.10,2013-02-20 08:07:00,
2013-02-20 03:21:00,15.1,9.0,30.19,WNW,303,8.0,-999.0,75,-99.99,,,0.00,0,weatherlink.com 1.10,2013-02-20 08:21:00,
2013-02-20 03:36:00,14.9,8.0,30.19,West,259,7.0,-999.0,75,-99.99,,,0.00,0,weatherlink.com 1.10,2013-02-20 08:36:00,
2013-02-20 03:51:00,14.7,8.0,30.20,WNW,295,5.0,-999.0,76,-99.99,,,0.00,0,weatherlink.com 1.10,2013-02-20 08:51:00,
2013-02-20 04:06:00,14.2,8.0,30.20,WNW,288,10.0,-999.0,76,-99.99,,,0.00,0,weatherlink.com 1.10,2013-02-20 09:06:00,
2013-02-20 04:21:00,13.7,7.0,30.21,West,274,9.0,-999.0,76,-99.99,,,0.00,0,weatherlink.com 1.10,2013-02-20 09:21:00,
2013-02-20 04:36:00,13.4,7.0,30.21,WSW,257,15.0,-999.0,77,-99.99,,,0.00,0,weatherlink.com 1.10,2013-02-20 09:36:00,
2013-02-20 04:51:00,12.8,7.0,30.21,WSW,241,10.0,-999.0,78,-99.99,,,0.00,0,weatherlink.com 1.10,2013-02-20 09:51:00,
2013-02-20 05:06:00,12.6,7.0,30.22,West,266,7.0,-999.0,78,-99.99,,,0.00,0,weatherlink.com 1.10,2013-02-20 10:06:00,
2013-02-20 05:21:00,12.2,7.0,30.23,SW,226,9.0,-999.0,79,-99.99,,,0.00,0,weatherlink.com 1.10,2013-02-20 10:21:00,
2013-02-20 05:36:00,12.1,7.0,30.23,WSW,249,6.0,-999.0,79,-99.99,,,0.00,0,weatherlink.com 1.10,2013-02-20 10:36:00,
2013-02-20 05:51:00,12.1,7.0,30.24,WNW,286,9.0,-999.0,79,-99.99,,,0.00,0,weatherlink.com 1.10,2013-02-20 10:51:00,
2013-02-20 06:06:00,11.8,7.0,30.24,WNW,285,8.0,-999.0,79,-99.99,,,0.00,0,weatherlink.com 1.10,2013-02-20 11:06:00,
2013-02-20 06:21:00,11.3,6.0,30.24,West,278,9.0,-999.0,79,-99.99,,,0.00,0,weatherlink.com 1.10,2013-02-20 11:21:00,
2013-02-20 06:36:00,10.9,6.0,30.24,WSW,237,9.0,-999.0,80,-99.99,,,0.00,0,weatherlink.com 1.10,2013-02-20 11:36:00,
2013-02-20 06:51:00,10.7,6.0,30.25,SW,225,8.0,-999.0,80,-99.99,,,0.00,0,weatherlink.com 1.10,2013-02-20 11:51:00,
2013-02-20 07:06:00,10.8,6.0,30.25,WSW,258,9.0,-999.0,80,-99.99,,,0.00,0,weatherlink.com 1.10,2013-02-20 12:06:00,
2013-02-20 07:21:00,10.9,6.0,30.25,West,275,11.0,-999.0,80,-99.99,,,0.00,0,weatherlink.com 1.10,2013-02-20 12:21:00,
2013-02-20 07:36:00,10.8,6.0,30.26,West,262,7.0,-999.0,80,-99.99,,,0.00,7,weatherlink.com 1.10,2013-02-20 12:36:00,
2013-02-20 07:51:00,10.8,6.0,30.26,West,275,5.0,-999.0,80,-99.99,,,0.00,19,weatherlink.com 1.10,2013-02-20 12:51:00,
2013-02-20 08:06:00,10.9,6.0,30.27,WSW,251,6.0,-999.0,80,-99.99,,,0.00,21,weatherlink.com 1.10,2013-02-20 13:06:00,
2013-02-20 08:21:00,11.2,6.0,30.27,WSW,254,4.0,-999.0,80,-99.99,,,0.00,28,weatherlink.com 1.10,2013-02-20 13:21:00,
2013-02-20 08:36:00,11.7,6.0,30.28,WNW,288,8.0,-999.0,79,-99.99,,,0.00,39,weatherlink.com 1.10,2013-02-20 13:36:00,
2013-02-20 08:51:00,12.1,7.0,30.29,WNW,283,7.0,-999.0,78,-99.99,,,0.00,62,weatherlink.com 1.10,2013-02-20 13:51:00,
2013-02-20 09:06:00,12.6,7.0,30.29,WSW,258,5.0,-999.0,78,-99.99,,,0.00,130,weatherlink.com 1.10,2013-02-20 14:06:00,
2013-02-20 09:21:00,13.1,7.0,30.29,West,277,14.0,-999.0,78,-99.99,,,0.00,165,weatherlink.com 1.10,2013-02-20 14:21:00,
2013-02-20 09:36:00,13.5,8.0,30.29,West,266,11.0,-999.0,78,-99.99,,,0.00,171,weatherlink.com 1.10,2013-02-20 14:36:00,
2013-02-20 09:51:00,13.8,8.0,30.29,West,280,10.0,-999.0,77,-99.99,,,0.00,216,weatherlink.com 1.10,2013-02-20 14:51:00,
2013-02-20 10:06:00,14.6,9.0,30.29,West,271,5.0,-999.0,78,-99.99,,,0.00,241,weatherlink.com 1.10,2013-02-20 15:06:00,
2013-02-20 10:22:00,15.1,9.0,30.30,WSW,256,9.0,-999.0,77,-99.99,,,0.00,232,weatherlink.com 1.10,2013-02-20 15:22:00,
2013-02-20 10:36:00,15.8,10.0,30.30,WSW,247,10.0,-999.0,77,-99.99,,,0.00,396,weatherlink.com 1.10,2013-02-20 15:36:00,
2013-02-20 10:51:00,16.9,11.0,30.30,WNW,297,10.0,-999.0,76,-99.99,,,0.00,341,weatherlink.com 1.10,2013-02-20 15:51:00,
2013-02-20 11:07:00,17.0,10.0,30.31,WNW,286,10.0,-999.0,75,-99.99,,,0.00,362,weatherlink.com 1.10,2013-02-20 16:07:00,
2013-02-20 11:21:00,17.7,11.0,30.31,WSW,246,12.0,-999.0,75,-99.99,,,0.00,292,weatherlink.com 1.10,2013-02-20 16:21:00,
2013-02-20 11:37:00,18.3,11.0,30.32,NW,304,14.0,-999.0,74,-99.99,,,0.00,227,weatherlink.com 1.10,2013-02-20 16:37:00,
2013-02-20 11:52:00,18.5,12.0,30.32,NW,326,13.0,-999.0,75,-99.99,,,0.00,265,weatherlink.com 1.10,2013-02-20 16:52:00,
2013-02-20 12:06:00,18.6,11.0,30.32,WNW,283,11.0,-999.0,73,-99.99,,,0.00,359,weatherlink.com 1.10,2013-02-20 17:06:00,
2013-02-20 12:21:00,19.3,12.0,30.31,NW,312,11.0,-999.0,73,-99.99,,,0.00,415,weatherlink.com 1.10,2013-02-20 17:21:00,
2013-02-20 12:37:00,19.9,12.0,30.31,WSW,256,9.0,-999.0,72,-99.99,,,0.00,436,weatherlink.com 1.10,2013-02-20 17:37:00,
2013-02-20 12:52:00,19.9,12.0,30.31,WNW,296,9.0,-999.0,72,-99.99,,,0.00,341,weatherlink.com 1.10,2013-02-20 17:52:00,
2013-02-20 13:07:00,20.4,13.0,30.31,West,281,7.0,-999.0,72,-99.99,,,0.00,548,weatherlink.com 1.10,2013-02-20 18:07:00,
2013-02-20 13:22:00,20.5,12.0,30.31,WNW,285,9.0,-999.0,71,-99.99,,,0.00,322,weatherlink.com 1.10,2013-02-20 18:22:00,
2013-02-20 13:37:00,21.1,13.0,30.31,West,270,7.0,-999.0,70,-99.99,,,0.00,374,weatherlink.com 1.10,2013-02-20 18:37:00,
2013-02-20 13:52:00,21.1,13.0,30.31,West,270,7.0,-999.0,71,-99.99,,,0.00,297,weatherlink.com 1.10,2013-02-20 18:52:00,
2013-02-20 14:07:00,21.0,13.0,30.32,WSW,238,11.0,-999.0,71,-99.99,,,0.00,216,weatherlink.com 1.10,2013-02-20 19:07:00,
2013-02-20 14:22:00,20.8,12.0,30.32,WNW,283,8.0,-999.0,70,-99.99,,,0.00,243,weatherlink.com 1.10,2013-02-20 19:22:00,
2013-02-20 14:37:00,20.8,13.0,30.33,West,276,5.0,-999.0,71,-99.99,,,0.00,158,weatherlink.com 1.10,2013-02-20 19:37:00,
2013-02-20 14:52:00,21.1,13.0,30.33,WSW,245,8.0,-999.0,72,-99.99,,,0.00,225,weatherlink.com 1.10,2013-02-20 19:52:00,
2013-02-20 15:07:00,21.1,14.0,30.33,West,279,9.0,-999.0,74,-99.99,,,0.00,186,weatherlink.com 1.10,2013-02-20 20:07:00,
2013-02-20 15:22:00,21.4,14.0,30.33,WNW,293,7.0,-999.0,74,-99.99,,,0.00,146,weatherlink.com 1.10,2013-02-20 20:22:00,
2013-02-20 15:37:00,21.3,14.0,30.33,NW,310,5.0,-999.0,73,-99.99,,,0.00,137,weatherlink.com 1.10,2013-02-20 20:37:00,
2013-02-20 15:52:00,21.5,14.0,30.33,WSW,249,9.0,-999.0,73,-99.99,,,0.00,113,weatherlink.com 1.10,2013-02-20 20:52:00,
2013-02-20 16:07:00,21.4,14.0,30.33,NW,305,7.0,-999.0,72,-99.99,,,0.00,151,weatherlink.com 1.10,2013-02-20 21:07:00,
2013-02-20 16:22:00,21.6,15.0,30.32,NW,314,11.0,-999.0,74,-99.99,,,0.00,91,weatherlink.com 1.10,2013-02-20 21:22:00,
2013-02-20 16:37:00,21.5,14.0,30.33,NNW,332,10.0,-999.0,73,-99.99,,,0.00,98,weatherlink.com 1.10,2013-02-20 21:37:00,
2013-02-20 16:52:00,21.4,14.0,30.33,WNW,285,6.0,-999.0,73,-99.99,,,0.00,46,weatherlink.com 1.10,2013-02-20 21:52:00,
2013-02-20 17:07:00,21.4,14.0,30.32,NNW,341,5.0,-999.0,74,-99.99,,,0.00,49,weatherlink.com 1.10,2013-02-20 22:07:00,
2013-02-20 17:22:00,21.3,15.0,30.32,NNW,335,6.0,-999.0,75,-99.99,,,0.00,44,weatherlink.com 1.10,2013-02-20 22:22:00,
2013-02-20 17:37:00,21.3,15.0,30.33,NNW,327,10.0,-999.0,76,-99.99,,,0.00,35,weatherlink.com 1.10,2013-02-20 22:37:00,
2013-02-20 17:52:00,21.3,15.0,30.34,NNW,337,5.0,-999.0,75,-99.99,,,0.00,21,weatherlink.com 1.10,2013-02-20 22:52:00,
2013-02-20 18:07:00,21.2,14.0,30.34,NW,307,5.0,-999.0,75,-99.99,,,0.00,12,weatherlink.com 1.10,2013-02-20 23:07:00,
2013-02-20 18:22:00,21.2,14.0,30.35,WNW,303,5.0,-999.0,75,-99.99,,,0.00,0,weatherlink.com 1.10,2013-02-20 23:22:00,
2013-02-20 18:37:00,21.0,14.0,30.35,NW,321,8.0,-999.0,75,-99.99,,,0.00,0,weatherlink.com 1.10,2013-02-20 23:37:00,
2013-02-20 19:07:00,21.0,15.0,30.35,NNW,334,11.0,-999.0,77,-99.99,,,0.00,0,weatherlink.com 1.10,2013-02-21 00:07:00,
2013-02-20 19:22:00,21.0,15.0,30.36,NW,322,8.0,-999.0,77,-99.99,,,0.00,0,weatherlink.com 1.10,2013-02-21 00:22:00,
2013-02-20 19:36:00,21.1,15.0,30.35,NNW,333,11.0,-999.0,77,-99.99,,,0.00,0,weatherlink.com 1.10,2013-02-21 00:36:00,
2013-02-20 19:51:00,21.3,15.0,30.35,North,354,6.0,-999.0,76,-99.99,,,0.00,0,weatherlink.com 1.10,2013-02-21 00:51:00,
2013-02-20 20:06:00,21.3,15.0,30.35,NW,316,6.0,-999.0,75,-99.99,,,0.00,0,weatherlink.com 1.10,2013-02-21 01:06:00,
2013-02-20 20:21:00,21.3,15.0,30.35,WNW,293,11.0,-999.0,76,-99.99,,,0.00,0,weatherlink.com 1.10,2013-02-21 01:21:00,
2013-02-20 20:36:00,21.5,15.0,30.35,WNW,293,4.0,-999.0,76,-99.99,,,0.00,0,weatherlink.com 1.10,2013-02-21 01:36:00,
2013-02-20 20:51:00,21.6,15.0,30.35,NW,316,6.0,-999.0,76,-99.99,,,0.00,0,weatherlink.com 1.10,2013-02-21 01:51:00,
2013-02-20 21:06:00,21.6,15.0,30.35,WNW,283,4.0,-999.0,77,-99.99,,,0.00,0,weatherlink.com 1.10,2013-02-21 02:06:00,
2013-02-20 21:21:00,21.6,15.0,30.35,NW,316,4.0,-999.0,77,-99.99,,,0.00,0,weatherlink.com 1.10,2013-02-21 02:21:00,
2013-02-20 21:36:00,21.3,15.0,30.35,NW,305,5.0,-999.0,78,-99.99,,,0.00,0,weatherlink.com 1.10,2013-02-21 02:36:00,
2013-02-20 21:51:00,21.3,16.0,30.35,NNW,337,3.0,-999.0,79,-99.99,,,0.00,0,weatherlink.com 1.10,2013-02-21 02:51:00,
2013-02-20 22:06:00,21.4,16.0,30.35,NW,319,4.0,-999.0,80,-99.99,,,0.00,0,weatherlink.com 1.10,2013-02-21 03:06:00,
2013-02-20 22:21:00,21.4,16.0,30.34,NW,325,3.0,-999.0,80,-99.99,,,0.00,0,weatherlink.com 1.10,2013-02-21 03:21:00,
2013-02-20 22:37:00,21.4,16.0,30.34,NW,318,4.0,-999.0,81,-99.99,,,0.00,0,weatherlink.com 1.10,2013-02-21 03:37:00,
2013-02-20 22:51:00,21.4,17.0,30.34,NNW,345,3.0,-999.0,82,-99.99,,,0.00,0,weatherlink.com 1.10,2013-02-21 03:51:00,
2013-02-20 23:07:00,21.5,17.0,30.34,NNW,339,4.0,-999.0,82,-99.99,,,0.00,0,weatherlink.com 1.10,2013-02-21 04:07:00,
2013-02-20 23:22:00,21.5,17.0,30.33,NW,313,4.0,-999.0,82,-99.99,,,0.00,0,weatherlink.com 1.10,2013-02-21 04:22:00,
2013-02-20 23:37:00,21.7,17.0,30.34,NNW,327,3.0,-999.0,83,-99.99,,,0.00,0,weatherlink.com 1.10,2013-02-21 04:37:00,
2013-02-20 23:52:00,22.0,18.0,30.34,North,4,4.0,-999.0,83,-99.99,,,0.00,0,weatherlink.com 1.10,2013-02-21 04:52:00,